Ship Status Report: callsign AMOUK35

sailwx.info

Track history (hours):
 
Tides and Currents Weather Stations Pressure Air Temp Water Temp Dewpoint Dewpoint Depression Visibility Wind Speed Wind Dir Waves Ship Positions

Callsign AMOUK35 (name unknown)

Last reported at 2015-Mar-01 10:00 UTC. Time now 2015-Mar-01 12:34 UTC.
Position N 56°24' W 005°30'.

Barometer 984.7 mb
Air temperature 6.0 ° C
Dewpoint 1.9 ° C

Date/timePositionNaut miles runAvg speedWind from/ knotsBaromVisibWave heightAir tempDewpointWater temp
2015-Mar-01 10:00N 56°24' W 005°30'0 0.0 984.7 6.0 1.9
2015-Mar-01 09:00N 56°24' W 005°30'0 0.0 984.3 6.8 2.3
2015-Mar-01 08:00N 56°24' W 005°30'0 0.0 984.0 6.8 2.3
2015-Mar-01 07:00N 56°24' W 005°30'0 0.0 983.3 7.1 2.3
2015-Mar-01 04:00N 56°24' W 005°30'0 0.0 981.0 5.6 2.5
2015-Mar-01 03:00N 56°24' W 005°30'0 0.0 980.6 7.2 2.8
2015-Mar-01 02:00N 56°24' W 005°30'0 0.0 980.0 7.1 2.3
2015-Mar-01 00:00N 56°24' W 005°30'0 0.0 976.1 7.1 3.6
2015-Feb-28 22:00N 56°24' W 005°30'0 0.0 969.5 8.8 6.6
2015-Feb-28 21:00N 56°24' W 005°30'0 0.0 971.9 9.8 7.3
2015-Feb-28 20:00N 56°24' W 005°30'0 0.0 974.1 9.0 7.0
2015-Feb-28 19:00N 56°24' W 005°30'0 0.0 976.0 8.0 6.0
2015-Feb-28 18:00N 56°24' W 005°30'0 0.0 979.1 6.5 4.2
2015-Feb-28 15:00N 56°24' W 005°30'0 0.0 988.2 7.1 4.9
2015-Feb-28 14:00N 56°24' W 005°30'0 0.0 990.6 7.0 4.7
2015-Feb-28 13:00N 56°24' W 005°30'0 0.0 992.5 7.3 4.9
2015-Feb-28 12:00N 56°24' W 005°30'0 0.0 994.3 7.0 4.4
2015-Feb-28 11:00N 56°24' W 005°30'0 0.0 995.9 7.4 4.5
2015-Feb-28 10:00N 56°24' W 005°30'0 0.0 996.9 7.6 4.9
2015-Feb-28 09:00N 56°24' W 005°30'0 0.0 997.7 7.4 5.0
2015-Feb-28 08:00N 56°24' W 005°30'0 0.0 998.3 7.1 4.8
2015-Feb-28 07:00N 56°24' W 005°30'0 0.0 999.0 7.4 5.0
2015-Feb-28 06:00N 56°24' W 005°30'0 0.0 999.3 6.8 4.4
2015-Feb-28 05:00N 56°24' W 005°30'0 0.0 999.7 7.5 4.9
2015-Feb-27 22:00N 56°24' W 005°30'0 0.0 1002.1 6.4 4.3
2015-Feb-27 18:00N 56°24' W 005°30'0 0.0 1006.3 6.3 1.8
2015-Feb-27 17:00N 56°24' W 005°30'0 0.0 1007.5 6.6 2.2
2015-Feb-27 15:00N 56°24' W 005°30'0 0.0 1009.6 6.8 2.9
2015-Feb-27 14:00N 56°24' W 005°30'0 0.0 1010.0 7.1 2.8
2015-Feb-27 12:00N 56°24' W 005°30'0 0.0 1010.8 7.6 2.1
2015-Feb-27 11:00N 56°24' W 005°30'0 0.0 1011.1 7.1 2.3
2015-Feb-27 09:00N 56°24' W 005°30'0 0.0 1010.3 6.5 2.1
2015-Feb-27 08:00N 56°24' W 005°30'0 0.0 1010.1 5.9 1.4
2015-Feb-27 07:00N 56°24' W 005°30'0 0.0 1010.1 6.3 1.8
2015-Feb-27 05:00N 56°24' W 005°30'0 0.0 1009.3 5.1 1.4
2015-Feb-27 01:00N 56°24' W 005°30'0 0.0 1008.0 3.7 1.2
2015-Feb-26 16:00N 56°24' W 005°30'0 0.0 1004.6 5.7-0.1
2015-Feb-26 15:00N 56°24' W 005°30'0 0.0 1004.5 5.0 1.1
2015-Feb-26 12:00N 56°24' W 005°30'0 0.0 1003.6 4.1 1.1
2015-Feb-26 10:00N 56°24' W 005°30'0 0.0 1002.1 5.7-0.0
2015-Feb-26 09:00N 56°24' W 005°30'0 0.0 1001.6 6.4-2.0
2015-Feb-26 08:00N 56°24' W 005°30'0 0.0 1001.1 6.2 0.7
2015-Feb-26 05:00N 56°24' W 005°30'0 0.0 998.9 8.0 4.8
2015-Feb-26 04:00N 56°24' W 005°30'0 0.0 998.2 8.7 6.9
2015-Feb-26 03:00N 56°24' W 005°30'0 0.0 997.5 10.7 9.0
2015-Feb-25 22:00N 56°24' W 005°30'0 0.0 1002.0 10.7 8.9
2015-Feb-25 21:00N 56°24' W 005°30'0 0.0 1002.5 10.7 9.0
2015-Feb-25 20:00N 56°24' W 005°30'0 0.0 1003.8 10.4 8.7
2015-Feb-25 17:00N 56°24' W 005°30'0 0.0 1005.8 7.7 5.8
2015-Feb-25 16:00N 56°24' W 005°30'0 0.0 1006.5 7.3 5.1
2015-Feb-25 15:00N 56°24' W 005°30'0 0.0 1007.4 6.8 4.8
2015-Feb-25 14:00N 56°24' W 005°30'3 1.7 1008.5 7.0 4.9
2015-Feb-25 12:00N 56°24' W 005°36'7 6.9 1009.2 6.7 4.2
2015-Feb-25 11:00N 56°30' W 005°42'3 3.3 1009.3 6.5 4.0
2015-Feb-25 10:00N 56°30' W 005°48'9 8.9 1008.5 5.7 3.2
2015-Feb-25 09:00N 56°36' W 006°00'0 0.0 1008.0 4.8 2.4
2015-Feb-25 08:00N 56°36' W 006°00'7 6.9 1008.4 5.1 2.5
2015-Feb-25 07:00N 56°30' W 005°54'0 0.0 1008.4 4.4 2.2
2015-Feb-25 06:00N 56°30' W 005°54'0 0.0 1007.4 4.1 2.1
2015-Feb-25 05:00N 56°30' W 005°54'0 0.0 1006.5 4.4 2.3
2015-Feb-25 04:00N 56°30' W 005°54'0 0.0 1005.9 4.0 1.9
2015-Feb-25 03:00N 56°30' W 005°54'0 0.0 1005.2 4.4 1.8
2015-Feb-25 02:00N 56°30' W 005°54'0 0.0 1004.5 3.7 1.6
2015-Feb-25 01:00N 56°30' W 005°54'0 0.0 1004.0 3.8 1.6
2015-Feb-25 00:00N 56°30' W 005°54'0 0.0 1003.5 5.4 2.3
2015-Feb-24 23:00N 56°30' W 005°54'0 0.0 1003.2 4.3 1.1
2015-Feb-24 22:00N 56°30' W 005°54'0 0.0 1002.7 4.6 1.2
2015-Feb-24 21:00N 56°30' W 005°54'0 0.0 1002.1 4.9 0.9
2015-Feb-24 20:00N 56°30' W 005°54'7 6.6 1001.9 4.6 0.4
2015-Feb-24 19:00N 56°30' W 005°42'9 8.9 1001.0 5.6 0.2
2015-Feb-24 18:00N 56°36' W 005°30'1212.4 1000.7 4.3-0.1
2015-Feb-24 17:00N 56°24' W 005°36'3 0.7 998.6 5.1 0.2
2015-Feb-24 12:00N 56°24' W 005°30'0 0.0 994.8 5.0 0.8
2015-Feb-24 10:00N 56°24' W 005°30'0 0.0 991.5 5.9 1.0
2015-Feb-24 09:00N 56°24' W 005°30'0 0.0 990.6 5.5 1.0
2015-Feb-24 07:00N 56°24' W 005°30'0 0.0 987.1 6.8-0.9
2015-Feb-24 06:00N 56°24' W 005°30'0 0.0 986.6 6.2 0.6
2015-Feb-24 05:00N 56°24' W 005°30'0 0.0 985.2 5.5 1.0
2015-Feb-24 04:00N 56°24' W 005°30'0 0.0 983.7 5.3 1.8
2015-Feb-24 03:00N 56°24' W 005°30'0 0.0 982.5 5.1 0.9
2015-Feb-24 02:00N 56°24' W 005°30'0 0.0 981.4 5.4 0.8
2015-Feb-24 01:00N 56°24' W 005°30'0 0.0 979.3 6.0 2.1
2015-Feb-23 23:00N 56°24' W 005°30'0 0.0 975.8 6.4 1.4
2015-Feb-23 22:00N 56°24' W 005°30'0 0.0 972.8 5.2 2.7
2015-Feb-23 20:00N 56°24' W 005°30'0 0.0 969.2 5.8 2.3
2015-Feb-23 19:00N 56°24' W 005°30'0 0.0 967.3 4.5 1.9
2015-Feb-23 16:00N 56°24' W 005°30'0 0.0 967.4 3.0 0.9
2015-Feb-23 15:00N 56°24' W 005°30'0 0.0 967.5 3.8 1.5
2015-Feb-23 10:00N 56°24' W 005°30'0 0.0 969.8 3.8 1.4
2015-Feb-23 09:00N 56°24' W 005°30'0 0.0 970.2 3.6 1.2
2015-Feb-23 08:00N 56°24' W 005°30'0 0.0 970.4 4.0 1.4
2015-Feb-23 07:00N 56°24' W 005°30'0 0.0 971.0 4.1 1.3
2015-Feb-23 06:00N 56°24' W 005°30'0 0.0 971.9 3.0 0.5
2015-Feb-23 05:00N 56°24' W 005°30'0 0.0 972.4 3.9 1.5
2015-Feb-23 02:00N 56°24' W 005°30'0 0.0 975.0 3.2 0.7
2015-Feb-23 00:00N 56°24' W 005°30'0 0.0 976.4 2.9-0.0
2015-Feb-22 23:00N 56°24' W 005°30'0 0.0 976.9 4.1-0.2
2015-Feb-22 22:00N 56°24' W 005°30'0 0.0 976.9 4.7 0.2
2015-Feb-22 18:00N 56°24' W 005°30'0 0.0 976.4 6.4 3.0
2015-Feb-22 16:00N 56°24' W 005°30'0 0.0 978.0 6.1 4.0
2015-Feb-22 15:00N 56°24' W 005°30'0 0.0 979.5 7.4 5.2
2015-Feb-22 14:00N 56°24' W 005°30'7 1.7 979.9 5.7 3.8
2015-Feb-22 10:00N 56°30' W 005°36'10 9.9 988.6 4.1 2.1
2015-Feb-22 09:00N 56°30' W 005°54'0 0.0 990.7 3.5 1.0
2015-Feb-22 08:00N 56°30' W 005°54'0 0.0 993.6 4.3 1.6
2015-Feb-22 07:00N 56°30' W 005°54'0 0.0 995.6 3.3 1.4
2015-Feb-22 06:00N 56°30' W 005°54'0 0.0 997.5 3.0 1.3
2015-Feb-22 05:00N 56°30' W 005°54'0 0.0 998.7 3.1 1.3
2015-Feb-22 04:00N 56°30' W 005°54'0 0.0 1000.0 2.9 1.2
2015-Feb-22 03:00N 56°30' W 005°54'0 0.0 1001.4 3.0 1.4
2015-Feb-22 02:00N 56°30' W 005°54'0 0.0 1002.4 3.3 1.5
2015-Feb-22 01:00N 56°30' W 005°54'0 0.0 1003.0 2.4 0.6
2015-Feb-22 00:00N 56°30' W 005°54'0 0.0 1002.9 2.5 0.6
2015-Feb-21 23:00N 56°30' W 005°54'0 0.0 1003.0 3.1 1.0
2015-Feb-21 22:00N 56°30' W 005°54'18 8.8 1002.7 3.7 1.1
2015-Feb-21 20:00N 56°36' W 006°24'12 2.9 1001.7 5.6 1.9
2015-Feb-21 16:00N 56°42' W 006°06'1413.7 998.0 5.2 3.0
2015-Feb-21 15:00N 56°30' W 005°54'10 5.0 997.9 4.7 2.0
2015-Feb-21 13:00N 56°30' W 005°36'0 0.0 998.9 2.4 0.1
2015-Feb-21 12:00N 56°30' W 005°36'0 0.0 998.4 4.5 0.7
2015-Feb-21 10:00N 56°30' W 005°36'0 0.0 998.2 3.5-0.7
2015-Feb-21 09:00N 56°30' W 005°36'0 0.0 997.5 4.0 0.6
2015-Feb-21 07:00N 56°30' W 005°36'0 0.0 996.8 2.6 0.3
2015-Feb-21 05:00N 56°30' W 005°36'0 0.0 996.6 3.5 0.6
2015-Feb-21 03:00N 56°30' W 005°36'0 0.0 996.8 3.0 0.5
2015-Feb-21 02:00N 56°30' W 005°36'0 0.0 996.9 2.9 0.3
2015-Feb-21 01:00N 56°30' W 005°36'0 0.0 997.1 4.5 1.1
2015-Feb-21 00:00N 56°30' W 005°36'0 0.0 997.1 4.0 0.9
2015-Feb-20 23:00N 56°30' W 005°36'0 0.0 997.2 4.4 1.4
2015-Feb-20 22:00N 56°30' W 005°36'14 6.9 997.3 3.7 1.3
2015-Feb-20 20:00N 56°18' W 005°48'9 9.0 997.4 5.2 2.0
2015-Feb-20 19:00N 56°12' W 006°00'1413.7 997.7 5.9 2.4
2015-Feb-20 18:00N 56°00' W 006°12'7 6.9 997.6 4.6 1.5
2015-Feb-20 17:00N 55°54' W 006°06'1212.5 998.3 5.4 1.8
2015-Feb-20 16:00N 55°42' W 006°00'0 0.0 998.5 6.2 0.7
2015-Feb-20 13:00N 55°42' W 006°00'0 0.0 1000.4 4.4 1.7
2015-Feb-20 12:00N 55°42' W 006°00'0 0.0 1001.0 4.7 2.1
2015-Feb-20 10:00N 55°42' W 006°00'0 0.0 1001.2 5.0 1.9
2015-Feb-20 08:00N 55°42' W 006°00'0 0.0 1001.4 4.3 1.2
2015-Feb-20 01:00N 55°42' W 006°00'0 0.0 1004.6 5.7 2.7
2015-Feb-20 00:00N 55°42' W 006°00'7 2.3 1004.7 5.4 2.3
2015-Feb-19 21:00N 55°36' W 006°06'3 3.4 1006.7 5.7 2.6
2015-Feb-19 20:00N 55°36' W 006°12'12 3.1 1007.0 6.5 3.4
2015-Feb-19 16:00N 55°48' W 006°18'0 0.0 1006.3 6.7 3.3
2015-Feb-19 15:00N 55°48' W 006°18'7 6.9 1006.6 6.3 2.0
2015-Feb-19 14:00N 55°42' W 006°24'1413.8 1007.1 8.2 2.9
2015-Feb-19 13:00N 55°30' W 006°12'9 9.1 1007.4 7.7 3.4
2015-Feb-19 12:00N 55°24' W 006°00'   1008.2 7.4 3.6
Track history (hours):
 
Tides and Currents Weather Stations Pressure Air Temp Water Temp Dewpoint Dewpoint Depression Visibility Wind Speed Wind Dir Waves Ship Positions

Callsign AMOUK35 (name unknown)

Last reported at 2015-Mar-01 10:00 UTC. Time now 2015-Mar-01 12:34 UTC.
Position N 56°24' W 005°30'.

Barometer 984.7 mb
Air temperature 6.0 ° C
Dewpoint 1.9 ° C

Date/timePositionNaut miles runAvg speedWind from/ knotsBaromVisibWave heightAir tempDewpointWater temp
2015-Mar-01 10:00N 56°24' W 005°30'0 0.0 984.7 6.0 1.9
2015-Mar-01 09:00N 56°24' W 005°30'0 0.0 984.3 6.8 2.3
2015-Mar-01 08:00N 56°24' W 005°30'0 0.0 984.0 6.8 2.3
2015-Mar-01 07:00N 56°24' W 005°30'0 0.0 983.3 7.1 2.3
2015-Mar-01 04:00N 56°24' W 005°30'0 0.0 981.0 5.6 2.5
2015-Mar-01 03:00N 56°24' W 005°30'0 0.0 980.6 7.2 2.8
2015-Mar-01 02:00N 56°24' W 005°30'0 0.0 980.0 7.1 2.3
2015-Mar-01 00:00N 56°24' W 005°30'0 0.0 976.1 7.1 3.6
2015-Feb-28 22:00N 56°24' W 005°30'0 0.0 969.5 8.8 6.6
2015-Feb-28 21:00N 56°24' W 005°30'0 0.0 971.9 9.8 7.3
2015-Feb-28 20:00N 56°24' W 005°30'0 0.0 974.1 9.0 7.0
2015-Feb-28 19:00N 56°24' W 005°30'0 0.0 976.0 8.0 6.0
2015-Feb-28 18:00N 56°24' W 005°30'0 0.0 979.1 6.5 4.2
2015-Feb-28 15:00N 56°24' W 005°30'0 0.0 988.2 7.1 4.9
2015-Feb-28 14:00N 56°24' W 005°30'0 0.0 990.6 7.0 4.7
2015-Feb-28 13:00N 56°24' W 005°30'0 0.0 992.5 7.3 4.9
2015-Feb-28 12:00N 56°24' W 005°30'0 0.0 994.3 7.0 4.4
2015-Feb-28 11:00N 56°24' W 005°30'0 0.0 995.9 7.4 4.5
2015-Feb-28 10:00N 56°24' W 005°30'0 0.0 996.9 7.6 4.9
2015-Feb-28 09:00N 56°24' W 005°30'0 0.0 997.7 7.4 5.0
2015-Feb-28 08:00N 56°24' W 005°30'0 0.0 998.3 7.1 4.8
2015-Feb-28 07:00N 56°24' W 005°30'0 0.0 999.0 7.4 5.0
2015-Feb-28 06:00N 56°24' W 005°30'0 0.0 999.3 6.8 4.4
2015-Feb-28 05:00N 56°24' W 005°30'0 0.0 999.7 7.5 4.9
2015-Feb-27 22:00N 56°24' W 005°30'0 0.0 1002.1 6.4 4.3
2015-Feb-27 18:00N 56°24' W 005°30'0 0.0 1006.3 6.3 1.8
2015-Feb-27 17:00N 56°24' W 005°30'0 0.0 1007.5 6.6 2.2
2015-Feb-27 15:00N 56°24' W 005°30'0 0.0 1009.6 6.8 2.9
2015-Feb-27 14:00N 56°24' W 005°30'0 0.0 1010.0 7.1 2.8
2015-Feb-27 12:00N 56°24' W 005°30'0 0.0 1010.8 7.6 2.1
2015-Feb-27 11:00N 56°24' W 005°30'0 0.0 1011.1 7.1 2.3
2015-Feb-27 09:00N 56°24' W 005°30'0 0.0 1010.3 6.5 2.1
2015-Feb-27 08:00N 56°24' W 005°30'0 0.0 1010.1 5.9 1.4
2015-Feb-27 07:00N 56°24' W 005°30'0 0.0 1010.1 6.3 1.8
2015-Feb-27 05:00N 56°24' W 005°30'0 0.0 1009.3 5.1 1.4
2015-Feb-27 01:00N 56°24' W 005°30'0 0.0 1008.0 3.7 1.2
2015-Feb-26 16:00N 56°24' W 005°30'0 0.0 1004.6 5.7-0.1
2015-Feb-26 15:00N 56°24' W 005°30'0 0.0 1004.5 5.0 1.1
2015-Feb-26 12:00N 56°24' W 005°30'0 0.0 1003.6 4.1 1.1
2015-Feb-26 10:00N 56°24' W 005°30'0 0.0 1002.1 5.7-0.0
2015-Feb-26 09:00N 56°24' W 005°30'0 0.0 1001.6 6.4-2.0
2015-Feb-26 08:00N 56°24' W 005°30'0 0.0 1001.1 6.2 0.7
2015-Feb-26 05:00N 56°24' W 005°30'0 0.0 998.9 8.0 4.8
2015-Feb-26 04:00N 56°24' W 005°30'0 0.0 998.2 8.7 6.9
2015-Feb-26 03:00N 56°24' W 005°30'0 0.0 997.5 10.7 9.0
2015-Feb-25 22:00N 56°24' W 005°30'0 0.0 1002.0 10.7 8.9
2015-Feb-25 21:00N 56°24' W 005°30'0 0.0 1002.5 10.7 9.0
2015-Feb-25 20:00N 56°24' W 005°30'0 0.0 1003.8 10.4 8.7
2015-Feb-25 17:00N 56°24' W 005°30'0 0.0 1005.8 7.7 5.8
2015-Feb-25 16:00N 56°24' W 005°30'0 0.0 1006.5 7.3 5.1
2015-Feb-25 15:00N 56°24' W 005°30'0 0.0 1007.4 6.8 4.8
2015-Feb-25 14:00N 56°24' W 005°30'3 1.7 1008.5 7.0 4.9
2015-Feb-25 12:00N 56°24' W 005°36'7 6.9 1009.2 6.7 4.2
2015-Feb-25 11:00N 56°30' W 005°42'3 3.3 1009.3 6.5 4.0
2015-Feb-25 10:00N 56°30' W 005°48'9 8.9 1008.5 5.7 3.2
2015-Feb-25 09:00N 56°36' W 006°00'0 0.0 1008.0 4.8 2.4
2015-Feb-25 08:00N 56°36' W 006°00'7 6.9 1008.4 5.1 2.5
2015-Feb-25 07:00N 56°30' W 005°54'0 0.0 1008.4 4.4 2.2
2015-Feb-25 06:00N 56°30' W 005°54'0 0.0 1007.4 4.1 2.1
2015-Feb-25 05:00N 56°30' W 005°54'0 0.0 1006.5 4.4 2.3
2015-Feb-25 04:00N 56°30' W 005°54'0 0.0 1005.9 4.0 1.9
2015-Feb-25 03:00N 56°30' W 005°54'0 0.0 1005.2 4.4 1.8
2015-Feb-25 02:00N 56°30' W 005°54'0 0.0 1004.5 3.7 1.6
2015-Feb-25 01:00N 56°30' W 005°54'0 0.0 1004.0 3.8 1.6
2015-Feb-25 00:00N 56°30' W 005°54'0 0.0 1003.5 5.4 2.3
2015-Feb-24 23:00N 56°30' W 005°54'0 0.0 1003.2 4.3 1.1
2015-Feb-24 22:00N 56°30' W 005°54'0 0.0 1002.7 4.6 1.2
2015-Feb-24 21:00N 56°30' W 005°54'0 0.0 1002.1 4.9 0.9
2015-Feb-24 20:00N 56°30' W 005°54'7 6.6 1001.9 4.6 0.4
2015-Feb-24 19:00N 56°30' W 005°42'9 8.9 1001.0 5.6 0.2
2015-Feb-24 18:00N 56°36' W 005°30'1212.4 1000.7 4.3-0.1
2015-Feb-24 17:00N 56°24' W 005°36'3 0.7 998.6 5.1 0.2
2015-Feb-24 12:00N 56°24' W 005°30'0 0.0 994.8 5.0 0.8
2015-Feb-24 10:00N 56°24' W 005°30'0 0.0 991.5 5.9 1.0
2015-Feb-24 09:00N 56°24' W 005°30'0 0.0 990.6 5.5 1.0
2015-Feb-24 07:00N 56°24' W 005°30'0 0.0 987.1 6.8-0.9
2015-Feb-24 06:00N 56°24' W 005°30'0 0.0 986.6 6.2 0.6
2015-Feb-24 05:00N 56°24' W 005°30'0 0.0 985.2 5.5 1.0
2015-Feb-24 04:00N 56°24' W 005°30'0 0.0 983.7 5.3 1.8
2015-Feb-24 03:00N 56°24' W 005°30'0 0.0 982.5 5.1 0.9
2015-Feb-24 02:00N 56°24' W 005°30'0 0.0 981.4 5.4 0.8
2015-Feb-24 01:00N 56°24' W 005°30'0 0.0 979.3 6.0 2.1
2015-Feb-23 23:00N 56°24' W 005°30'0 0.0 975.8 6.4 1.4
2015-Feb-23 22:00N 56°24' W 005°30'0 0.0 972.8 5.2 2.7
2015-Feb-23 20:00N 56°24' W 005°30'0 0.0 969.2 5.8 2.3
2015-Feb-23 19:00N 56°24' W 005°30'0 0.0 967.3 4.5 1.9
2015-Feb-23 16:00N 56°24' W 005°30'0 0.0 967.4 3.0 0.9
2015-Feb-23 15:00N 56°24' W 005°30'0 0.0 967.5 3.8 1.5
2015-Feb-23 10:00N 56°24' W 005°30'0 0.0 969.8 3.8 1.4
2015-Feb-23 09:00N 56°24' W 005°30'0 0.0 970.2 3.6 1.2
2015-Feb-23 08:00N 56°24' W 005°30'0 0.0 970.4 4.0 1.4
2015-Feb-23 07:00N 56°24' W 005°30'0 0.0 971.0 4.1 1.3
2015-Feb-23 06:00N 56°24' W 005°30'0 0.0 971.9 3.0 0.5
2015-Feb-23 05:00N 56°24' W 005°30'0 0.0 972.4 3.9 1.5
2015-Feb-23 02:00N 56°24' W 005°30'0 0.0 975.0 3.2 0.7
2015-Feb-23 00:00N 56°24' W 005°30'0 0.0 976.4 2.9-0.0
2015-Feb-22 23:00N 56°24' W 005°30'0 0.0 976.9 4.1-0.2
2015-Feb-22 22:00N 56°24' W 005°30'0 0.0 976.9 4.7 0.2
2015-Feb-22 18:00N 56°24' W 005°30'0 0.0 976.4 6.4 3.0
2015-Feb-22 16:00N 56°24' W 005°30'0 0.0 978.0 6.1 4.0
2015-Feb-22 15:00N 56°24' W 005°30'0 0.0 979.5 7.4 5.2
2015-Feb-22 14:00N 56°24' W 005°30'7 1.7 979.9 5.7 3.8
2015-Feb-22 10:00N 56°30' W 005°36'10 9.9 988.6 4.1 2.1
2015-Feb-22 09:00N 56°30' W 005°54'0 0.0 990.7 3.5 1.0
2015-Feb-22 08:00N 56°30' W 005°54'0 0.0 993.6 4.3 1.6
2015-Feb-22 07:00N 56°30' W 005°54'0 0.0 995.6 3.3 1.4
2015-Feb-22 06:00N 56°30' W 005°54'0 0.0 997.5 3.0 1.3
2015-Feb-22 05:00N 56°30' W 005°54'0 0.0 998.7 3.1 1.3
2015-Feb-22 04:00N 56°30' W 005°54'0 0.0 1000.0 2.9 1.2
2015-Feb-22 03:00N 56°30' W 005°54'0 0.0 1001.4 3.0 1.4
2015-Feb-22 02:00N 56°30' W 005°54'0 0.0 1002.4 3.3 1.5
2015-Feb-22 01:00N 56°30' W 005°54'0 0.0 1003.0 2.4 0.6
2015-Feb-22 00:00N 56°30' W 005°54'0 0.0 1002.9 2.5 0.6
2015-Feb-21 23:00N 56°30' W 005°54'0 0.0 1003.0 3.1 1.0
2015-Feb-21 22:00N 56°30' W 005°54'18 8.8 1002.7 3.7 1.1
2015-Feb-21 20:00N 56°36' W 006°24'12 2.9 1001.7 5.6 1.9
2015-Feb-21 16:00N 56°42' W 006°06'1413.7 998.0 5.2 3.0
2015-Feb-21 15:00N 56°30' W 005°54'10 5.0 997.9 4.7 2.0
2015-Feb-21 13:00N 56°30' W 005°36'0 0.0 998.9 2.4 0.1
2015-Feb-21 12:00N 56°30' W 005°36'0 0.0 998.4 4.5 0.7
2015-Feb-21 10:00N 56°30' W 005°36'0 0.0 998.2 3.5-0.7
2015-Feb-21 09:00N 56°30' W 005°36'0 0.0 997.5 4.0 0.6
2015-Feb-21 07:00N 56°30' W 005°36'0 0.0 996.8 2.6 0.3
2015-Feb-21 05:00N 56°30' W 005°36'0 0.0 996.6 3.5 0.6
2015-Feb-21 03:00N 56°30' W 005°36'0 0.0 996.8 3.0 0.5
2015-Feb-21 02:00N 56°30' W 005°36'0 0.0 996.9 2.9 0.3
2015-Feb-21 01:00N 56°30' W 005°36'0 0.0 997.1 4.5 1.1
2015-Feb-21 00:00N 56°30' W 005°36'0 0.0 997.1 4.0 0.9
2015-Feb-20 23:00N 56°30' W 005°36'0 0.0 997.2 4.4 1.4
2015-Feb-20 22:00N 56°30' W 005°36'14 6.9 997.3 3.7 1.3
2015-Feb-20 20:00N 56°18' W 005°48'9 9.0 997.4 5.2 2.0
2015-Feb-20 19:00N 56°12' W 006°00'1413.7 997.7 5.9 2.4
2015-Feb-20 18:00N 56°00' W 006°12'7 6.9 997.6 4.6 1.5
2015-Feb-20 17:00N 55°54' W 006°06'1212.5 998.3 5.4 1.8
2015-Feb-20 16:00N 55°42' W 006°00'0 0.0 998.5 6.2 0.7
2015-Feb-20 13:00N 55°42' W 006°00'0 0.0 1000.4 4.4 1.7
2015-Feb-20 12:00N 55°42' W 006°00'0 0.0 1001.0 4.7 2.1
2015-Feb-20 10:00N 55°42' W 006°00'0 0.0 1001.2 5.0 1.9
2015-Feb-20 08:00N 55°42' W 006°00'0 0.0 1001.4 4.3 1.2
2015-Feb-20 01:00N 55°42' W 006°00'0 0.0 1004.6 5.7 2.7
2015-Feb-20 00:00N 55°42' W 006°00'7 2.3 1004.7 5.4 2.3
2015-Feb-19 21:00N 55°36' W 006°06'3 3.4 1006.7 5.7 2.6
2015-Feb-19 20:00N 55°36' W 006°12'12 3.1 1007.0 6.5 3.4
2015-Feb-19 16:00N 55°48' W 006°18'0 0.0 1006.3 6.7 3.3
2015-Feb-19 15:00N 55°48' W 006°18'7 6.9 1006.6 6.3 2.0
2015-Feb-19 14:00N 55°42' W 006°24'1413.8 1007.1 8.2 2.9
2015-Feb-19 13:00N 55°30' W 006°12'9 9.1 1007.4 7.7 3.4
2015-Feb-19 12:00N 55°24' W 006°00'   1008.2 7.4 3.6

Dump ship's entire track history